Time;durP1;ratioP1;P1;durP2;ratioP2;P2;SDS_P1;SDS_P2;PMS_P1;PMS_P2;Temp;Humidity;BMP_temperature;BMP_pressure;BME280_temperature;BME280_humidity;BME280_pressure;Samples;Min_cycle;Max_cycle;Signal;HPM_P1;HPM_P2
2020/12/03 00:01:00;;;;;;;4.32;2.63;;;8.20;87.10;;;;;;5054589;28;20025;-80
2020/12/03 00:03:56;;;;;;;5.07;2.20;;;8.30;87.10;;;;;;5036614;28;20487;-81
2020/12/03 00:06:39;;;;;;;3.58;2.20;;;8.20;87.10;;;;;;5054447;28;20032;-81
2020/12/03 00:09:08;;;;;;;4.05;2.63;;;8.20;87.10;;;;;;5055094;28;20100;-80
2020/12/03 00:11:40;;;;;;;2.92;2.05;;;8.20;87.10;;;;;;5051962;28;20060;-79
2020/12/03 00:14:06;;;;;;;5.38;2.58;;;8.30;87.10;;;;;;5056730;28;20420;-81
2020/12/03 00:16:33;;;;;;;4.53;2.67;;;8.30;87.00;;;;;;5056368;28;20017;-80
2020/12/03 00:19:00;;;;;;;4.18;2.90;;;8.30;86.90;;;;;;5056609;28;20075;-81
2020/12/03 00:21:43;;;;;;;6.03;3.95;;;8.30;87.00;;;;;;5056144;28;20099;-84
2020/12/03 00:24:12;;;;;;;3.35;2.25;;;8.30;86.90;;;;;;5054985;28;20079;-81
2020/12/03 00:26:38;;;;;;;4.57;2.85;;;8.20;87.00;;;;;;5057603;28;20051;-81
2020/12/03 00:29:05;;;;;;;3.97;2.67;;;8.20;87.10;;;;;;5076604;28;20161;-82
2020/12/03 00:31:31;;;;;;;3.92;2.78;;;8.20;87.00;;;;;;5076306;28;20013;-82
2020/12/03 00:33:57;;;;;;;4.32;3.15;;;8.30;87.00;;;;;;5076222;28;20025;-82
2020/12/03 00:36:23;;;;;;;4.57;2.83;;;8.20;87.00;;;;;;5058054;28;20120;-81
2020/12/03 00:38:49;;;;;;;5.10;2.97;;;8.20;87.10;;;;;;5056100;28;20095;-81
2020/12/03 00:41:16;;;;;;;3.60;2.70;;;8.20;87.10;;;;;;5057949;28;20477;-81
2020/12/03 00:43:42;;;;;;;5.07;2.72;;;8.20;87.10;;;;;;5076221;28;20021;-81
2020/12/03 00:46:08;;;;;;;4.28;3.40;;;8.20;87.10;;;;;;5075510;28;20046;-81
2020/12/03 00:48:33;;;;;;;4.45;3.40;;;8.20;87.10;;;;;;5057882;28;20025;-81
2020/12/03 00:50:59;;;;;;;2.95;2.10;;;8.30;87.10;;;;;;5057967;28;20066;-81
2020/12/03 00:53:24;;;;;;;3.95;2.63;;;8.30;87.10;;;;;;5074537;28;20044;-81
2020/12/03 00:55:50;;;;;;;3.65;2.25;;;8.20;87.10;;;;;;5075495;28;20024;-82
2020/12/03 00:58:17;;;;;;;5.00;3.05;;;8.20;87.10;;;;;;5058729;28;20484;-81
2020/12/03 01:00:42;;;;;;;5.32;3.20;;;8.20;87.10;;;;;;5058754;28;20025;-81
2020/12/03 01:03:08;;;;;;;5.95;3.63;;;8.20;87.10;;;;;;5059034;28;20108;-81
2020/12/03 01:05:34;;;;;;;3.28;2.40;;;8.30;87.10;;;;;;5076729;28;20032;-81
2020/12/03 01:08:00;;;;;;;4.10;2.83;;;8.30;87.70;;;;;;5058364;28;20066;-82
2020/12/03 01:10:32;;;;;;;4.13;2.53;;;8.30;87.00;;;;;;5076786;28;20290;-81
2020/12/03 01:12:59;;;;;;;3.95;2.75;;;8.30;87.00;;;;;;5077410;28;20036;-81
2020/12/03 01:15:25;;;;;;;4.93;3.60;;;8.30;87.80;;;;;;5081339;28;20062;-81
2020/12/03 01:17:51;;;;;;;4.90;2.42;;;8.30;87.10;;;;;;5062244;28;20028;-82
2020/12/03 01:20:23;;;;;;;3.55;2.38;;;8.30;87.10;;;;;;5064967;28;20047;-80
2020/12/03 01:22:49;;;;;;;3.33;2.67;;;8.30;87.10;;;;;;5077738;28;20029;-80
2020/12/03 01:25:17;;;;;;;4.45;2.60;;;8.30;87.70;;;;;;5057182;28;20029;-80
2020/12/03 01:27:43;;;;;;;3.67;2.55;;;8.30;87.00;;;;;;5057888;28;20033;-80
2020/12/03 01:30:09;;;;;;;4.15;3.00;;;8.30;87.00;;;;;;5076481;28;20024;-80
2020/12/03 01:32:35;;;;;;;6.10;3.97;;;8.30;87.10;;;;;;5058231;28;20123;-79
2020/12/03 01:35:03;;;;;;;3.35;2.55;;;8.30;87.10;;;;;;5075921;28;20347;-80
2020/12/03 01:37:28;;;;;;;3.85;2.22;;;8.30;87.00;;;;;;5058118;28;20028;-80
2020/12/03 01:39:54;;;;;;;4.65;2.72;;;8.30;86.90;;;;;;5074935;28;20391;-81
2020/12/03 01:42:19;;;;;;;4.00;2.70;;;8.30;87.00;;;;;;5076648;28;20029;-80
2020/12/03 01:44:48;;;;;;;5.18;3.05;;;8.30;86.90;;;;;;5058253;28;20355;-80
2020/12/03 01:47:37;;;;;;;3.42;2.53;;;8.30;86.90;;;;;;5077031;28;20038;-80
2020/12/03 01:50:06;;;;;;;4.95;2.58;;;8.30;86.90;;;;;;5077721;28;20071;-80
2020/12/03 01:52:32;;;;;;;3.40;2.28;;;8.30;86.90;;;;;;5082988;28;20033;-80
2020/12/03 01:54:58;;;;;;;3.83;2.58;;;8.30;87.00;;;;;;5084076;28;20031;-81
2020/12/03 01:57:54;;;;;;;4.88;3.50;;;8.30;87.00;;;;;;5074870;28;20032;-81
2020/12/03 02:00:21;;;;;;;4.45;2.67;;;8.30;87.00;;;;;;5042195;28;20028;-81
2020/12/03 02:02:49;;;;;;;3.65;2.80;;;8.20;87.10;;;;;;5038861;28;20036;-82
2020/12/03 02:05:20;;;;;;;4.63;2.70;;;8.30;87.10;;;;;;5051154;28;20041;-80
2020/12/03 02:07:46;;;;;;;4.03;2.72;;;8.30;87.20;;;;;;5057422;28;20029;-80
2020/12/03 02:10:14;;;;;;;4.75;2.50;;;8.20;87.10;;;;;;5074646;28;20035;-83
2020/12/03 02:12:39;;;;;;;3.90;2.42;;;8.20;87.10;;;;;;5075603;28;20067;-81
2020/12/03 02:15:07;;;;;;;3.58;2.42;;;8.20;87.20;;;;;;5075198;28;20093;-81
2020/12/03 02:17:33;;;;;;;3.28;2.38;;;8.20;87.20;;;;;;5058339;28;20035;-80
2020/12/03 02:20:04;;;;;;;2.53;2.10;;;8.10;87.30;;;;;;5075462;28;20024;-80
2020/12/03 02:22:29;;;;;;;4.63;2.90;;;8.10;87.30;;;;;;5074887;28;20028;-81
2020/12/03 02:24:55;;;;;;;3.75;2.78;;;8.10;87.30;;;;;;5056267;28;20060;-83
2020/12/03 02:27:24;;;;;;;4.00;2.65;;;8.10;87.30;;;;;;5075629;28;20028;-81
2020/12/03 02:29:50;;;;;;;3.22;2.58;;;8.00;87.40;;;;;;5058009;28;20035;-81
2020/12/03 02:32:17;;;;;;;5.05;2.83;;;8.00;87.40;;;;;;5057599;28;20041;-82
2020/12/03 02:34:44;;;;;;;4.20;2.90;;;8.00;87.40;;;;;;5075687;28;20027;-81
2020/12/03 02:37:10;;;;;;;4.22;2.70;;;8.00;87.40;;;;;;5057320;28;20033;-81
2020/12/03 02:39:36;;;;;;;4.15;2.53;;;8.00;87.40;;;;;;5055330;28;20020;-81
2020/12/03 02:42:04;;;;;;;3.70;2.65;;;8.00;87.40;;;;;;5055972;28;20052;-81
2020/12/03 02:44:30;;;;;;;6.95;3.08;;;8.00;87.40;;;;;;5073668;28;20107;-81
2020/12/03 02:46:55;;;;;;;4.07;2.72;;;8.00;87.40;;;;;;5055650;28;20111;-82
2020/12/03 02:49:21;;;;;;;3.15;2.55;;;8.00;87.30;;;;;;5055581;28;20434;-81
2020/12/03 02:51:47;;;;;;;3.72;2.03;;;7.90;87.30;;;;;;5073593;28;20135;-81
2020/12/03 02:54:13;;;;;;;3.38;2.40;;;8.00;87.40;;;;;;5072331;28;20067;-82
2020/12/03 02:56:39;;;;;;;4.22;2.53;;;8.00;87.40;;;;;;5073442;28;20037;-82
2020/12/03 02:59:07;;;;;;;3.70;2.38;;;7.90;87.40;;;;;;5073349;28;20024;-83
2020/12/03 03:01:33;;;;;;;4.35;3.00;;;7.90;87.30;;;;;;5073281;28;20028;-81
2020/12/03 03:04:02;;;;;;;2.97;2.33;;;7.90;87.30;;;;;;5073150;28;20035;-81
2020/12/03 03:06:28;;;;;;;3.08;2.38;;;7.90;87.30;;;;;;5075525;28;20358;-82
2020/12/03 03:08:54;;;;;;;3.05;1.95;;;7.90;87.30;;;;;;5073167;28;20074;-81
2020/12/03 03:11:20;;;;;;;3.08;2.22;;;7.90;87.40;;;;;;5073862;28;20047;-82
2020/12/03 03:13:45;;;;;;;2.75;2.33;;;7.90;88.10;;;;;;5076610;28;20035;-82
2020/12/03 03:16:11;;;;;;;3.08;2.30;;;7.90;87.40;;;;;;5059757;28;20029;-81
2020/12/03 03:18:36;;;;;;;3.40;2.60;;;7.90;87.50;;;;;;5061010;28;20466;-83
2020/12/03 03:21:02;;;;;;;2.55;1.80;;;7.90;87.10;;;;;;5080964;28;20017;-81
2020/12/03 03:23:28;;;;;;;4.50;2.80;;;7.80;87.40;;;;;;5070800;28;20462;-81
2020/12/03 03:25:59;;;;;;;3.60;2.17;;;7.90;87.40;;;;;;5073000;28;20450;-81
2020/12/03 03:28:25;;;;;;;2.85;2.22;;;7.90;87.40;;;;;;5072938;28;20037;-82
2020/12/03 03:30:50;;;;;;;3.58;2.25;;;7.90;87.40;;;;;;5055301;28;20066;-81
2020/12/03 03:33:16;;;;;;;3.13;2.10;;;7.80;87.30;;;;;;5054536;28;20378;-83
2020/12/03 03:35:41;;;;;;;3.25;1.88;;;7.80;87.30;;;;;;5054847;28;20032;-81
2020/12/03 03:38:07;;;;;;;3.33;2.45;;;7.80;87.40;;;;;;5071615;28;20544;-81
2020/12/03 03:40:32;;;;;;;3.75;2.60;;;7.80;87.30;;;;;;5073496;28;20404;-81
2020/12/03 03:42:58;;;;;;;3.22;1.70;;;7.80;87.40;;;;;;5072998;28;20024;-81
2020/12/03 03:45:23;;;;;;;3.08;2.13;;;7.80;87.40;;;;;;5072866;28;20024;-81
2020/12/03 03:47:50;;;;;;;3.38;2.42;;;7.80;87.40;;;;;;5054554;28;20032;-81
2020/12/03 03:50:16;;;;;;;2.53;1.98;;;7.80;87.40;;;;;;5072753;28;20021;-81
2020/12/03 03:52:41;;;;;;;2.88;2.20;;;7.80;87.30;;;;;;5053693;28;20357;-81
2020/12/03 03:55:07;;;;;;;3.15;2.22;;;7.80;87.20;;;;;;5071492;28;20475;-82
2020/12/03 03:57:33;;;;;;;5.07;2.83;;;7.90;87.20;;;;;;5054481;28;20048;-82
2020/12/03 03:59:59;;;;;;;3.45;2.10;;;7.90;87.10;;;;;;5054514;28;20021;-81
2020/12/03 04:02:25;;;;;;;3.00;2.17;;;7.90;87.10;;;;;;5072707;28;20025;-81
2020/12/03 04:04:52;;;;;;;3.92;2.45;;;7.90;87.00;;;;;;5072262;28;20024;-82
2020/12/03 04:07:18;;;;;;;2.15;1.73;;;7.90;87.00;;;;;;5055131;28;20025;-81
2020/12/03 04:09:45;;;;;;;3.40;2.42;;;7.90;87.00;;;;;;5071299;28;20056;-81
2020/12/03 04:12:11;;;;;;;3.33;2.33;;;7.90;87.00;;;;;;5073110;28;20043;-82
2020/12/03 04:14:37;;;;;;;2.65;2.35;;;7.90;87.00;;;;;;5073004;28;20025;-83
2020/12/03 04:17:03;;;;;;;2.65;2.10;;;7.90;86.90;;;;;;5054737;28;20135;-82
2020/12/03 04:19:28;;;;;;;3.03;2.25;;;7.90;86.90;;;;;;5072340;28;20104;-81
2020/12/03 04:21:54;;;;;;;4.57;2.38;;;7.90;87.00;;;;;;5054759;28;20067;-83
2020/12/03 04:24:20;;;;;;;3.63;2.15;;;7.90;86.80;;;;;;5071375;28;20044;-82
2020/12/03 04:26:45;;;;;;;2.30;1.65;;;7.90;86.90;;;;;;5054573;28;20072;-81
2020/12/03 04:29:14;;;;;;;2.35;1.85;;;7.90;87.00;;;;;;5053908;28;20058;-82
2020/12/03 04:31:43;;;;;;;3.17;2.23;;;7.90;86.90;;;;;;5072740;28;20138;-81
2020/12/03 04:34:09;;;;;;;3.67;2.53;;;7.90;86.90;;;;;;5053533;28;20314;-81
2020/12/03 04:36:35;;;;;;;2.67;2.10;;;8.00;86.90;;;;;;5073096;28;20048;-80
2020/12/03 04:39:01;;;;;;;3.72;2.65;;;8.00;86.80;;;;;;5071051;28;20028;-81
2020/12/03 04:41:26;;;;;;;2.50;1.90;;;8.00;86.80;;;;;;5072219;28;20031;-82
2020/12/03 04:43:59;;;;;;;2.92;2.03;;;8.00;86.80;;;;;;5054170;28;20031;-82
2020/12/03 04:46:40;;;;;;;3.33;2.03;;;8.00;86.80;;;;;;5073944;28;20040;-81
2020/12/03 04:49:32;;;;;;;4.07;1.85;;;8.00;86.90;;;;;;5076073;28;20099;-81
2020/12/03 04:52:34;;;;;;;2.45;1.70;;;8.00;86.80;;;;;;5058155;28;20052;-82
2020/12/03 04:55:25;;;;;;;2.70;1.75;;;8.00;86.80;;;;;;4978542;28;20099;-81
2020/12/03 04:58:04;;;;;;;2.65;1.85;;;8.00;86.90;;;;;;4962285;28;20039;-81
2020/12/03 05:01:09;;;;;;;2.95;2.40;;;8.00;86.80;;;;;;4975599;28;20042;-82
2020/12/03 05:03:59;;;;;;;2.75;2.13;;;8.00;86.80;;;;;;4975444;28;20027;-81
2020/12/03 05:06:36;;;;;;;2.85;1.70;;;8.00;86.90;;;;;;4960205;28;20165;-81
2020/12/03 05:09:31;;;;;;;3.95;2.65;;;8.00;86.90;;;;;;4959852;28;20034;-81
2020/12/03 05:12:20;;;;;;;3.65;2.30;;;8.00;86.80;;;;;;4900702;29;20139;-81
2020/12/03 05:14:49;;;;;;;2.77;2.03;;;8.00;86.90;;;;;;4896961;29;20025;-82
2020/12/03 05:17:31;;;;;;;3.13;1.85;;;8.00;86.90;;;;;;4888702;29;20638;-82
2020/12/03 05:20:00;;;;;;;2.72;2.10;;;8.00;86.80;;;;;;4899132;29;20029;-80
2020/12/03 05:22:27;;;;;;;2.92;1.88;;;8.00;86.80;;;;;;4886264;29;20128;-82
2020/12/03 05:24:53;;;;;;;2.53;1.88;;;8.00;86.80;;;;;;4863654;29;20281;-81
2020/12/03 05:27:33;;;;;;;2.83;2.25;;;8.00;86.90;;;;;;4872674;29;20081;-82
2020/12/03 05:30:03;;;;;;;2.33;1.85;;;8.00;86.80;;;;;;4882954;29;20032;-82
2020/12/03 05:32:28;;;;;;;3.33;2.10;;;8.00;86.80;;;;;;4985745;28;20460;-82
2020/12/03 05:34:54;;;;;;;2.70;1.90;;;8.00;86.80;;;;;;4990941;28;20046;-80
2020/12/03 05:37:23;;;;;;;3.03;1.98;;;8.00;86.80;;;;;;4985158;28;20145;-81
2020/12/03 05:39:57;;;;;;;2.85;2.15;;;8.00;86.80;;;;;;4993044;28;20065;-82
2020/12/03 05:42:35;;;;;;;3.85;2.45;;;8.00;86.90;;;;;;4992271;28;20038;-82
2020/12/03 05:45:09;;;;;;;2.58;2.28;;;8.00;86.80;;;;;;4994218;28;20026;-82
2020/12/03 05:47:38;;;;;;;1.92;1.70;;;8.00;86.90;;;;;;4981000;28;20429;-82
2020/12/03 05:50:07;;;;;;;2.83;1.95;;;8.00;86.90;;;;;;5057148;28;20020;-83
2020/12/03 05:52:33;;;;;;;;;;;8.00;86.90;;;;;;5075672;28;20032;-83
2020/12/03 05:55:06;;;;;;;2.55;1.95;;;8.00;86.70;;;;;;5073880;28;20389;-82
2020/12/03 05:57:40;;;;;;;2.47;2.00;;;8.00;86.90;;;;;;5056016;28;20020;-82
2020/12/03 06:00:12;;;;;;;2.70;1.50;;;8.10;86.90;;;;;;5075143;28;20056;-82
2020/12/03 06:02:57;;;;;;;2.47;1.90;;;8.10;86.80;;;;;;5057027;28;20024;-82
2020/12/03 06:05:52;;;;;;;2.47;1.70;;;8.10;86.80;;;;;;5056976;28;20020;-81
2020/12/03 06:08:35;;;;;;;3.25;1.85;;;8.10;86.70;;;;;;5069115;28;20032;-83
2020/12/03 06:11:41;;;;;;;3.95;1.98;;;8.10;86.80;;;;;;5057343;28;20058;-83
2020/12/03 06:14:18;;;;;;;2.28;1.90;;;8.00;86.80;;;;;;5074679;28;20044;-82
2020/12/03 06:17:03;;;;;;;2.10;1.90;;;7.90;87.00;;;;;;5075399;28;20386;-83
2020/12/03 06:19:42;;;;;;;2.70;1.38;;;7.90;87.20;;;;;;5075204;28;20100;-82
2020/12/03 06:22:36;;;;;;;2.72;1.58;;;7.90;87.20;;;;;;5077271;28;20078;-83
2020/12/03 06:25:35;;;;;;;1.98;1.48;;;7.90;87.20;;;;;;5035869;28;20045;-82
2020/12/03 06:28:20;;;;;;;1.50;1.40;;;7.90;87.20;;;;;;5035608;28;20059;-82
2020/12/03 06:30:59;;;;;;;2.88;1.98;;;7.90;87.20;;;;;;5037434;28;20082;-81
2020/12/03 06:33:48;;;;;;;1.88;1.55;;;7.90;87.30;;;;;;5053498;28;20079;-80
2020/12/03 06:36:14;;;;;;;2.10;1.42;;;7.90;87.30;;;;;;5054157;28;20032;-79
2020/12/03 06:38:59;;;;;;;1.50;1.40;;;7.90;87.30;;;;;;5051380;28;20036;-78
2020/12/03 06:41:49;;;;;;;2.35;1.52;;;7.90;87.30;;;;;;5051851;28;20025;-79
2020/12/03 06:44:33;;;;;;;;;;;7.90;87.40;;;;;;5052551;28;20029;-79
2020/12/03 06:47:01;;;;;;;1.38;1.27;;;7.90;87.30;;;;;;5053805;28;19904;-79
2020/12/03 06:49:40;;;;;;;1.30;1.20;;;7.90;87.30;;;;;;5051337;28;20041;-81
2020/12/03 06:52:12;;;;;;;1.33;1.00;;;8.00;87.20;;;;;;5051376;28;20118;-79
2020/12/03 06:55:03;;;;;;;1.70;1.48;;;8.00;87.30;;;;;;5052638;28;20036;-81
2020/12/03 06:58:00;;;;;;;2.20;1.83;;;7.90;87.20;;;;;;5051974;28;20463;-77
2020/12/03 07:00:46;;;;;;;1.90;1.33;;;7.90;87.20;;;;;;5046371;28;20044;-83
2020/12/03 07:03:33;;;;;;;2.58;1.83;;;7.90;87.30;;;;;;4990802;28;20026;-80
2020/12/03 07:06:17;;;;;;;1.90;1.27;;;7.90;87.40;;;;;;4974677;28;20554;-77
2020/12/03 07:09:16;;;;;;;1.58;1.40;;;7.90;87.40;;;;;;4990703;28;20482;-78
2020/12/03 07:11:53;;;;;;;1.40;1.30;;;7.90;87.40;;;;;;4971441;28;20089;-78
2020/12/03 07:14:37;;;;;;;1.38;1.27;;;7.90;87.40;;;;;;4972567;28;20063;-79
2020/12/03 07:17:29;;;;;;;1.50;1.15;;;7.90;87.40;;;;;;4972189;28;20042;-79
2020/12/03 07:20:09;;;;;;;2.20;1.95;;;7.90;87.40;;;;;;4955295;28;20181;-79
2020/12/03 07:22:44;;;;;;;1.42;1.20;;;7.90;87.40;;;;;;4954392;28;20073;-80
2020/12/03 07:25:14;;;;;;;1.70;1.60;;;7.90;87.40;;;;;;4970305;28;20047;-79
2020/12/03 07:28:08;;;;;;;1.80;1.50;;;7.90;87.40;;;;;;4954508;28;20059;-79
2020/12/03 07:30:50;;;;;;;2.05;1.65;;;7.90;87.50;;;;;;4971489;28;20046;-78
2020/12/03 07:33:24;;;;;;;1.65;1.20;;;7.90;87.60;;;;;;4970448;28;20043;-77
2020/12/03 07:36:08;;;;;;;2.80;1.80;;;7.90;87.60;;;;;;4954745;28;20077;-79
2020/12/03 07:38:38;;;;;;;1.60;1.23;;;7.90;87.60;;;;;;4968511;28;20085;-79
2020/12/03 07:41:05;;;;;;;1.80;1.48;;;7.90;87.60;;;;;;5015158;28;20125;-79
2020/12/03 07:43:35;;;;;;;2.50;1.77;;;7.90;87.60;;;;;;5032796;28;20120;-79
2020/12/03 07:46:01;;;;;;;3.80;2.45;;;7.80;87.60;;;;;;5044909;28;20025;-82
2020/12/03 07:48:33;;;;;;;2.60;1.70;;;7.80;87.60;;;;;;5026840;28;20028;-80
2020/12/03 07:51:01;;;;;;;2.20;1.50;;;7.80;87.70;;;;;;5040059;28;20405;-81
2020/12/03 07:53:29;;;;;;;1.33;1.23;;;7.80;87.70;;;;;;5049810;28;20037;-81
2020/12/03 07:55:55;;;;;;;2.35;1.95;;;7.80;87.70;;;;;;5044277;28;20485;-79
2020/12/03 07:58:37;;;;;;;2.60;1.80;;;7.80;87.80;;;;;;5036976;28;20029;-79
2020/12/03 08:01:07;;;;;;;2.63;1.70;;;7.80;87.80;;;;;;5034652;28;20017;-81
2020/12/03 08:03:43;;;;;;;2.15;1.70;;;7.80;87.80;;;;;;5032275;28;20066;-80
2020/12/03 08:06:12;;;;;;;2.25;1.70;;;7.80;87.80;;;;;;5029945;28;20045;-80
2020/12/03 08:08:39;;;;;;;2.38;1.90;;;7.80;87.80;;;;;;5018050;28;20060;-81
2020/12/03 08:11:26;;;;;;;2.75;1.88;;;7.80;87.80;;;;;;5037938;28;20412;-79
2020/12/03 08:13:57;;;;;;;1.95;1.63;;;7.80;87.80;;;;;;5047311;28;20470;-79
2020/12/03 08:16:42;;;;;;;2.63;1.83;;;7.80;87.80;;;;;;5052803;28;20458;-79
2020/12/03 08:19:19;;;;;;;2.33;1.75;;;7.80;87.70;;;;;;5020517;28;20029;-81
2020/12/03 08:21:45;;;;;;;2.45;1.77;;;7.80;87.80;;;;;;5044592;28;20033;-80
2020/12/03 08:24:27;;;;;;;2.88;1.90;;;7.80;87.80;;;;;;5027100;28;20024;-80
2020/12/03 08:27:04;;;;;;;3.10;1.80;;;7.80;87.80;;;;;;5051317;28;20474;-81
2020/12/03 08:29:39;;;;;;;2.47;1.67;;;7.80;87.90;;;;;;5046773;28;20116;-81
2020/12/03 08:32:05;;;;;;;3.13;1.77;;;7.80;87.90;;;;;;5038735;28;20160;-81
2020/12/03 08:34:34;;;;;;;2.08;1.45;;;7.80;87.90;;;;;;5037640;28;20061;-80
2020/12/03 08:37:02;;;;;;;2.33;1.58;;;7.80;87.90;;;;;;5049647;28;20032;-81
2020/12/03 08:39:28;;;;;;;2.53;2.13;;;7.80;87.90;;;;;;5039087;28;20032;-80
2020/12/03 08:41:55;;;;;;;1.90;1.40;;;7.80;87.90;;;;;;5049768;28;20029;-79
2020/12/03 08:44:21;;;;;;;2.67;1.50;;;7.70;87.90;;;;;;5054826;28;20520;-80
2020/12/03 08:46:53;;;;;;;2.72;1.88;;;7.80;88.00;;;;;;5045709;28;20025;-80
2020/12/03 08:49:23;;;;;;;2.20;1.77;;;7.80;87.90;;;;;;5020864;28;20030;-81
2020/12/03 08:51:58;;;;;;;2.38;1.73;;;7.80;87.90;;;;;;5018936;28;20477;-81
2020/12/03 08:54:32;;;;;;;2.03;1.40;;;7.80;87.80;;;;;;5035488;28;20116;-81
2020/12/03 08:57:02;;;;;;;2.92;1.73;;;7.80;87.80;;;;;;5036928;28;20025;-81
2020/12/03 08:59:37;;;;;;;1.98;1.55;;;7.90;87.80;;;;;;5040720;28;20030;-79
2020/12/03 09:02:07;;;;;;;2.35;1.65;;;7.90;87.80;;;;;;5042900;28;20022;-81
2020/12/03 09:04:44;;;;;;;2.25;1.63;;;7.80;87.70;;;;;;5069380;28;20480;-82
2020/12/03 09:07:13;;;;;;;2.72;1.83;;;7.90;87.70;;;;;;5043241;28;20065;-80
2020/12/03 09:09:44;;;;;;;2.53;1.30;;;7.80;87.70;;;;;;5048969;28;20017;-84
2020/12/03 09:12:11;;;;;;;3.95;1.85;;;7.90;87.80;;;;;;5056474;28;20286;-81
2020/12/03 09:14:40;;;;;;;2.65;2.00;;;7.80;87.70;;;;;;5040211;28;20071;-78
2020/12/03 09:17:09;;;;;;;3.22;1.77;;;7.80;87.70;;;;;;5036306;28;20022;-80
2020/12/03 09:19:35;;;;;;;1.95;1.33;;;7.80;87.80;;;;;;5040185;28;20029;-83
2020/12/03 09:22:02;;;;;;;3.05;1.98;;;7.80;87.80;;;;;;5037769;28;20461;-82
2020/12/03 09:24:28;;;;;;;2.88;1.73;;;7.80;87.80;;;;;;5020604;28;20091;-82
2020/12/03 09:26:58;;;;;;;2.85;2.08;;;7.80;87.80;;;;;;5062313;28;20027;-84
2020/12/03 09:29:24;;;;;;;2.30;1.85;;;7.90;87.80;;;;;;5080661;28;20097;-84
2020/12/03 09:31:57;;;;;;;1.70;1.30;;;7.80;87.70;;;;;;5057352;28;20048;-83
2020/12/03 09:34:23;;;;;;;2.13;1.65;;;7.90;87.70;;;;;;5058242;28;20474;-80
2020/12/03 09:36:48;;;;;;;1.88;1.50;;;7.80;87.70;;;;;;5064822;28;20488;-81
2020/12/03 09:39:14;;;;;;;2.22;1.20;;;7.80;87.70;;;;;;5056622;28;20053;-84
2020/12/03 09:41:42;;;;;;;3.33;2.05;;;7.80;87.70;;;;;;5062848;28;20025;-79
2020/12/03 09:44:14;;;;;;;2.65;1.98;;;7.80;87.70;;;;;;5061767;28;20025;-84
2020/12/03 09:46:45;;;;;;;2.42;1.50;;;7.80;87.80;;;;;;5041290;28;20059;-80
2020/12/03 09:49:12;;;;;;;3.15;1.80;;;7.80;87.80;;;;;;5065017;28;20028;-81
2020/12/03 09:51:39;;;;;;;3.10;1.70;;;7.90;87.80;;;;;;5056359;28;20013;-81
2020/12/03 09:54:04;;;;;;;3.03;1.85;;;7.90;88.00;;;;;;5040605;28;20086;-81
2020/12/03 09:56:37;;;;;;;2.95;2.20;;;7.90;87.60;;;;;;5054817;28;20033;-79
2020/12/03 09:59:04;;;;;;;2.42;1.63;;;7.90;87.70;;;;;;5072076;28;20056;-78
2020/12/03 10:01:59;;;;;;;2.85;1.90;;;7.90;87.70;;;;;;5074943;28;20020;-79
2020/12/03 10:04:36;;;;;;;2.33;1.52;;;7.90;87.60;;;;;;5072424;28;20025;-82
2020/12/03 10:07:19;;;;;;;2.08;1.70;;;7.90;87.60;;;;;;5055400;28;20035;-79
2020/12/03 10:09:51;;;;;;;2.17;1.60;;;7.90;87.60;;;;;;5056912;28;20493;-80
2020/12/03 10:12:29;;;;;;;3.58;1.90;;;7.90;87.60;;;;;;5052401;28;20048;-81
2020/12/03 10:15:00;;;;;;;2.08;1.80;;;7.90;87.60;;;;;;5078307;28;20466;-79
2020/12/03 10:17:33;;;;;;;2.45;1.50;;;7.90;87.70;;;;;;5095663;28;20024;-78
2020/12/03 10:20:01;;;;;;;2.38;1.67;;;7.90;87.70;;;;;;5094180;28;20025;-80
2020/12/03 10:22:46;;;;;;;2.35;1.70;;;7.90;87.60;;;;;;5095898;28;20032;-80
2020/12/03 10:25:19;;;;;;;1.73;1.60;;;7.90;87.60;;;;;;5093759;28;20374;-79
2020/12/03 10:28:01;;;;;;;2.53;2.08;;;7.90;87.60;;;;;;5093205;28;20036;-78
2020/12/03 10:30:35;;;;;;;2.55;2.00;;;7.90;87.60;;;;;;5055917;28;20435;-78
2020/12/03 10:33:16;;;;;;;2.92;1.98;;;7.90;87.60;;;;;;5055551;28;20037;-78
2020/12/03 10:35:50;;;;;;;2.00;1.90;;;7.90;87.70;;;;;;5056005;28;20017;-78
2020/12/03 10:38:24;;;;;;;2.88;2.05;;;7.80;87.70;;;;;;5054058;28;20033;-79
2020/12/03 10:40:54;;;;;;;3.30;2.05;;;7.80;87.70;;;;;;5054882;28;20222;-77
2020/12/03 10:43:27;;;;;;;3.42;1.92;;;7.80;87.70;;;;;;5054960;28;20087;-78
2020/12/03 10:45:58;;;;;;;3.33;2.20;;;7.80;87.70;;;;;;5065976;28;20036;-78
2020/12/03 10:48:34;;;;;;;3.13;1.88;;;7.80;87.70;;;;;;5055006;28;20032;-78
2020/12/03 10:51:10;;;;;;;3.00;1.92;;;7.80;87.80;;;;;;5055556;28;20025;-79
2020/12/03 10:53:38;;;;;;;2.35;1.48;;;7.80;87.80;;;;;;5052744;28;20052;-79
2020/12/03 10:56:06;;;;;;;3.53;2.30;;;7.80;87.80;;;;;;5062216;28;20048;-77
2020/12/03 10:59:06;;;;;;;2.80;1.63;;;7.80;87.70;;;;;;5068502;28;20119;-78
2020/12/03 11:01:34;;;;;;;2.38;1.63;;;7.90;87.60;;;;;;5062329;28;20030;-79
2020/12/03 11:04:05;;;;;;;3.15;1.80;;;7.80;87.70;;;;;;5057945;28;20020;-78
2020/12/03 11:06:32;;;;;;;2.35;1.58;;;7.80;87.60;;;;;;5081412;28;20024;-79
2020/12/03 11:08:59;;;;;;;2.92;2.30;;;7.80;87.60;;;;;;5072047;28;20465;-79
2020/12/03 11:11:37;;;;;;;2.40;1.42;;;7.80;87.70;;;;;;5079030;28;20070;-79
2020/12/03 11:14:13;;;;;;;1.95;1.67;;;7.80;87.70;;;;;;5074436;28;20036;-79
2020/12/03 11:16:54;;;;;;;2.30;1.88;;;7.90;87.70;;;;;;5070851;28;20020;-79
2020/12/03 11:19:23;;;;;;;2.38;1.92;;;7.90;87.60;;;;;;5068318;28;20489;-79
2020/12/03 11:22:03;;;;;;;3.20;1.88;;;7.80;87.60;;;;;;5083763;28;20036;-80
2020/12/03 11:24:36;;;;;;;2.25;2.03;;;7.90;87.60;;;;;;5047727;28;20023;-80
2020/12/03 11:27:04;;;;;;;1.80;1.25;;;7.90;87.60;;;;;;5048145;28;20041;-79
2020/12/03 11:29:38;;;;;;;3.33;1.90;;;7.90;87.50;;;;;;5045614;28;20119;-78
2020/12/03 11:32:04;;;;;;;4.78;2.38;;;7.90;87.50;;;;;;5051966;28;20048;-80
2020/12/03 11:34:37;;;;;;;3.20;2.10;;;7.90;87.50;;;;;;5070344;28;20031;-79
2020/12/03 11:37:04;;;;;;;3.05;2.03;;;7.90;87.60;;;;;;5036822;28;20025;-80
2020/12/03 11:39:30;;;;;;;3.40;2.20;;;7.90;87.60;;;;;;5052762;28;20021;-82
2020/12/03 11:50:23;;;;;;;2.13;1.77;;;7.90;87.60;;;;;;5068574;28;20131;-84
2020/12/03 11:53:10;;;;;;;2.72;1.92;;;7.80;87.60;;;;;;5057778;28;20064;-82
2020/12/03 11:55:40;;;;;;;2.33;1.85;;;7.80;87.60;;;;;;5046128;28;20029;-83
2020/12/03 11:58:06;;;;;;;3.10;2.47;;;7.90;87.60;;;;;;5064273;28;20057;-82
2020/12/03 12:00:32;;;;;;;3.22;2.05;;;7.90;87.50;;;;;;5072868;28;20023;-81
2020/12/03 12:03:02;;;;;;;2.45;1.75;;;7.90;87.50;;;;;;5052687;28;20045;-81
2020/12/03 12:11:16;;;;;;;3.03;2.10;;;7.90;87.50;;;;;;5064744;28;20086;-86
2020/12/03 12:13:42;;;;;;;3.10;2.05;;;7.90;88.10;;;;;;5071954;28;20044;-85
2020/12/03 12:16:11;;;;;;;3.70;2.28;;;7.90;87.40;;;;;;5044474;28;20025;-80
2020/12/03 12:18:37;;;;;;;2.95;1.88;;;7.90;87.50;;;;;;5053748;28;20135;-82
2020/12/03 12:21:03;;;;;;;2.13;1.50;;;7.90;87.50;;;;;;5093549;28;20040;-82
2020/12/03 12:23:29;;;;;;;2.58;1.85;;;7.90;87.50;;;;;;5069111;28;20063;-79
2020/12/03 12:25:55;;;;;;;3.10;2.00;;;8.00;87.50;;;;;;5053840;28;20078;-82
2020/12/03 12:28:20;;;;;;;2.97;2.13;;;8.00;87.30;;;;;;5041336;28;20125;-81
2020/12/03 12:30:46;;;;;;;2.80;1.75;;;8.00;87.30;;;;;;5055083;28;20462;-81
2020/12/03 12:33:11;;;;;;;3.38;1.70;;;8.00;87.30;;;;;;5052842;28;20052;-78
2020/12/03 12:35:37;;;;;;;2.38;1.63;;;8.00;87.20;;;;;;5068341;28;20032;-78
2020/12/03 12:38:02;;;;;;;1.83;1.73;;;8.10;87.30;;;;;;5068570;28;20433;-81
2020/12/03 12:40:28;;;;;;;1.90;1.50;;;8.00;87.20;;;;;;5047758;28;20021;-86
2020/12/03 12:42:54;;;;;;;1.77;1.65;;;8.10;87.20;;;;;;5036193;28;20107;-87
2020/12/03 12:45:19;;;;;;;2.88;2.25;;;8.10;87.20;;;;;;5057339;28;20567;-81
2020/12/03 12:47:47;;;;;;;2.70;2.13;;;8.10;87.10;;;;;;5073743;28;20070;-83
2020/12/03 12:50:13;;;;;;;2.17;1.70;;;8.10;87.10;;;;;;5052069;28;20029;-81
2020/12/03 12:52:38;;;;;;;3.28;2.10;;;8.10;87.10;;;;;;5067839;28;20478;-80
2020/12/03 12:55:04;;;;;;;2.58;1.80;;;8.10;87.10;;;;;;5071330;28;20032;-82
2020/12/03 12:57:30;;;;;;;2.75;2.20;;;8.10;87.20;;;;;;5047915;28;20539;-80
2020/12/03 12:59:56;;;;;;;2.22;1.88;;;8.10;87.20;;;;;;5068682;28;20025;-79
2020/12/03 13:02:21;;;;;;;2.55;2.05;;;8.10;87.20;;;;;;5042080;28;20021;-80
2020/12/03 13:04:47;;;;;;;2.55;1.70;;;8.10;87.30;;;;;;5041633;28;20024;-79
2020/12/03 13:07:13;;;;;;;2.90;2.30;;;8.10;87.20;;;;;;5044443;28;20037;-80
2020/12/03 13:09:39;;;;;;;2.63;1.83;;;8.10;87.30;;;;;;5077995;28;20044;-81
2020/12/03 13:12:04;;;;;;;3.08;1.70;;;8.10;87.30;;;;;;5059596;28;20390;-78
2020/12/03 13:14:30;;;;;;;2.60;2.15;;;8.10;87.30;;;;;;5065710;28;20101;-79
2020/12/03 13:16:56;;;;;;;1.63;1.52;;;8.10;87.30;;;;;;5086648;28;20110;-81
2020/12/03 13:19:23;;;;;;;2.33;1.80;;;8.10;87.20;;;;;;5059701;28;20025;-78
2020/12/03 13:21:49;;;;;;;2.53;2.20;;;8.10;87.30;;;;;;5059047;28;20032;-80
2020/12/03 13:24:14;;;;;;;2.25;1.60;;;8.10;87.50;;;;;;5064008;28;20381;-83
2020/12/03 13:26:41;;;;;;;2.15;1.95;;;8.10;87.10;;;;;;5079688;28;20467;-80
2020/12/03 13:29:07;;;;;;;1.95;1.52;;;8.20;87.80;;;;;;5055200;28;20074;-79
2020/12/03 13:31:32;;;;;;;2.33;1.35;;;8.10;87.10;;;;;;5054921;28;20127;-78
2020/12/03 13:33:59;;;;;;;1.95;1.50;;;8.10;87.10;;;;;;5054584;28;20482;-82